sensor_id;sensor_type;location;lat;lon;timestamp;pressure;altitude;pressure_sealevel;temperature;humidity
20897;BME280;10608;42.600;23.398;2024-03-02T00:01:20;33668.84;;;-138.15;81.29
20897;BME280;10608;42.600;23.398;2024-03-02T00:03:46;33505.94;;;-138.15;82.01
20897;BME280;10608;42.600;23.398;2024-03-02T00:06:11;33635.47;;;-138.15;82.39
20897;BME280;10608;42.600;23.398;2024-03-02T00:08:37;33558.94;;;-138.15;81.97
20897;BME280;10608;42.600;23.398;2024-03-02T00:11:03;33611.94;;;-138.15;81.88
20897;BME280;10608;42.600;23.398;2024-03-02T00:13:29;33627.63;;;-138.15;81.85
20897;BME280;10608;42.600;23.398;2024-03-02T00:15:56;33556.97;;;-138.15;82.59
20897;BME280;10608;42.600;23.398;2024-03-02T00:18:26;33521.63;;;-138.15;82.54
20897;BME280;10608;42.600;23.398;2024-03-02T00:20:55;33543.22;;;-138.15;82.86
20897;BME280;10608;42.600;23.398;2024-03-02T00:23:27;33576.59;;;-138.15;81.83
20897;BME280;10608;42.600;23.398;2024-03-02T00:25:55;33348.91;;;-138.15;82.62
20897;BME280;10608;42.600;23.398;2024-03-02T00:28:30;33462.75;;;-138.15;82.86
20897;BME280;10608;42.600;23.398;2024-03-02T00:31:08;33380.31;;;-138.15;83.84
20897;BME280;10608;42.600;23.398;2024-03-02T00:33:37;33378.34;;;-138.15;83.71
20897;BME280;10608;42.600;23.398;2024-03-02T00:36:05;33307.69;;;-138.15;84.33
20897;BME280;10608;42.600;23.398;2024-03-02T00:38:32;33250.78;;;-138.15;84.08
20897;BME280;10608;42.600;23.398;2024-03-02T00:41:03;33140.84;;;-138.15;84.91
20897;BME280;10608;42.600;23.398;2024-03-02T00:46:00;33195.81;;;-138.15;84.19
20897;BME280;10608;42.600;23.398;2024-03-02T00:48:26;33246.84;;;-138.15;84.46
20897;BME280;10608;42.600;23.398;2024-03-02T00:50:52;33083.94;;;-138.15;84.40
20897;BME280;10608;42.600;23.398;2024-03-02T00:53:23;33262.53;;;-138.15;83.73
20897;BME280;10608;42.600;23.398;2024-03-02T00:55:50;33239.00;;;-138.15;84.50
20897;BME280;10608;42.600;23.398;2024-03-02T00:58:15;33319.47;;;-138.15;83.20
20897;BME280;10608;42.600;23.398;2024-03-02T01:00:40;33309.66;;;-138.15;83.70
20897;BME280;10608;42.600;23.398;2024-03-02T01:03:06;33545.19;;;-138.15;81.61
20897;BME280;10608;42.600;23.398;2024-03-02T01:05:33;33831.78;;;-138.15;79.70
20897;BME280;10608;42.600;23.398;2024-03-02T01:07:58;33927.97;;;-138.15;79.20
20897;BME280;10608;42.600;23.398;2024-03-02T01:10:23;34008.44;;;-138.15;78.67
20897;BME280;10608;42.600;23.398;2024-03-02T01:12:51;34030.03;;;-138.15;78.92
20897;BME280;10608;42.600;23.398;2024-03-02T01:15:16;34106.59;;;-138.15;78.57
20897;BME280;10608;42.600;23.398;2024-03-02T01:17:42;34124.28;;;-138.15;78.31
20897;BME280;10608;42.600;23.398;2024-03-02T01:20:08;34098.75;;;-138.15;79.29
20897;BME280;10608;42.600;23.398;2024-03-02T01:22:34;34028.09;;;-138.15;78.96
20897;BME280;10608;42.600;23.398;2024-03-02T01:25:01;34047.72;;;-138.15;79.45
20897;BME280;10608;42.600;23.398;2024-03-02T01:27:26;33908.34;;;-138.15;80.25
20897;BME280;10608;42.600;23.398;2024-03-02T01:29:52;33823.91;;;-138.15;80.77
20897;BME280;10608;42.600;23.398;2024-03-02T01:32:17;33702.22;;;-138.15;82.21
20897;BME280;10608;42.600;23.398;2024-03-02T01:34:43;33576.59;;;-138.15;81.97
20897;BME280;10608;42.600;23.398;2024-03-02T01:37:08;33509.84;;;-138.15;82.76
20897;BME280;10608;42.600;23.398;2024-03-02T01:39:35;33588.38;;;-138.15;82.04
20897;BME280;10608;42.600;23.398;2024-03-02T01:42:01;33541.25;;;-138.15;82.03
20897;BME280;10608;42.600;23.398;2024-03-02T01:44:26;33427.41;;;-138.15;83.11
20897;BME280;10608;42.600;23.398;2024-03-02T01:46:52;33470.59;;;-138.15;82.69
20897;BME280;10608;42.600;23.398;2024-03-02T01:49:17;33413.69;;;-138.15;83.49
20897;BME280;10608;42.600;23.398;2024-03-02T01:51:44;33164.41;;;-138.15;83.66
20897;BME280;10608;42.600;23.398;2024-03-02T01:54:09;33303.75;;;-138.15;83.39
20897;BME280;10608;42.600;23.398;2024-03-02T01:56:35;33223.28;;;-138.15;83.65
20897;BME280;10608;42.600;23.398;2024-03-02T01:59:00;33344.97;;;-138.15;82.53
20897;BME280;10608;42.600;23.398;2024-03-02T02:01:26;33272.34;;;-138.15;83.11
20897;BME280;10608;42.600;23.398;2024-03-02T02:03:52;33433.31;;;-138.15;82.63
20897;BME280;10608;42.600;23.398;2024-03-02T02:06:17;33474.53;;;-138.15;82.85
20897;BME280;10608;42.600;23.398;2024-03-02T02:08:43;33403.88;;;-138.15;83.19
20897;BME280;10608;42.600;23.398;2024-03-02T02:11:08;33411.72;;;-138.15;82.75
20897;BME280;10608;42.600;23.398;2024-03-02T02:13:34;33399.94;;;-138.15;82.52
20897;BME280;10608;42.600;23.398;2024-03-02T02:16:07;33458.81;;;-138.15;82.54
20897;BME280;10608;42.600;23.398;2024-03-02T02:18:32;33445.09;;;-138.15;82.33
20897;BME280;10608;42.600;23.398;2024-03-02T02:20:58;33431.34;;;-138.15;82.66
20897;BME280;10608;42.600;23.398;2024-03-02T02:23:23;33274.31;;;-138.15;83.58
20897;BME280;10608;42.600;23.398;2024-03-02T02:25:49;33144.78;;;-138.15;84.24
20897;BME280;10608;42.600;23.398;2024-03-02T02:28:14;33288.06;;;-138.15;83.62
20897;BME280;10608;42.600;23.398;2024-03-02T02:30:39;33411.72;;;-138.15;82.99
20897;BME280;10608;42.600;23.398;2024-03-02T02:33:05;33488.25;;;-138.15;82.38
20897;BME280;10608;42.600;23.398;2024-03-02T02:35:30;33627.63;;;-138.15;80.27
20897;BME280;10608;42.600;23.398;2024-03-02T02:37:56;33833.75;;;-138.15;79.92
20897;BME280;10608;42.600;23.398;2024-03-02T02:40:23;33768.97;;;-138.15;80.17
20897;BME280;10608;42.600;23.398;2024-03-02T02:42:48;33702.22;;;-138.15;80.72
20897;BME280;10608;42.600;23.398;2024-03-02T02:45:14;33719.88;;;-138.15;81.21
20897;BME280;10608;42.600;23.398;2024-03-02T02:47:40;33715.97;;;-138.15;80.46
20897;BME280;10608;42.600;23.398;2024-03-02T02:50:10;33765.03;;;-138.15;80.75
20897;BME280;10608;42.600;23.398;2024-03-02T02:52:38;33792.50;;;-138.15;80.63
20897;BME280;10608;42.600;23.398;2024-03-02T02:55:06;33918.16;;;-138.15;79.30
20897;BME280;10608;42.600;23.398;2024-03-02T02:57:32;33959.38;;;-138.15;79.92
20897;BME280;10608;42.600;23.398;2024-03-02T03:00:02;33876.94;;;-138.15;79.59
20897;BME280;10608;42.600;23.398;2024-03-02T03:02:30;33867.09;;;-138.15;80.61
20897;BME280;10608;42.600;23.398;2024-03-02T03:04:56;33702.22;;;-138.15;80.82
20897;BME280;10608;42.600;23.398;2024-03-02T03:07:22;33615.84;;;-138.15;81.18
20897;BME280;10608;42.600;23.398;2024-03-02T03:09:48;33666.88;;;-138.15;80.71
20897;BME280;10608;42.600;23.398;2024-03-02T03:12:13;33690.44;;;-138.15;81.08
20897;BME280;10608;42.600;23.398;2024-03-02T03:14:40;33676.69;;;-138.15;81.10
20897;BME280;10608;42.600;23.398;2024-03-02T03:17:06;33672.78;;;-138.15;81.59
20897;BME280;10608;42.600;23.398;2024-03-02T03:19:33;33635.47;;;-138.15;81.24
20897;BME280;10608;42.600;23.398;2024-03-02T03:21:59;33641.38;;;-138.15;81.32
20897;BME280;10608;42.600;23.398;2024-03-02T03:24:24;33682.59;;;-138.15;80.67
20897;BME280;10608;42.600;23.398;2024-03-02T03:26:49;33763.06;;;-138.15;80.63
20897;BME280;10608;42.600;23.398;2024-03-02T03:29:15;33827.84;;;-138.15;79.70
20897;BME280;10608;42.600;23.398;2024-03-02T03:31:40;33926.00;;;-138.15;79.09
20897;BME280;10608;42.600;23.398;2024-03-02T03:34:05;33904.41;;;-138.15;79.10
20897;BME280;10608;42.600;23.398;2024-03-02T03:36:31;33841.59;;;-138.15;79.97
20897;BME280;10608;42.600;23.398;2024-03-02T03:38:56;33812.16;;;-138.15;80.60
20897;BME280;10608;42.600;23.398;2024-03-02T03:41:23;33761.09;;;-138.15;80.51
20897;BME280;10608;42.600;23.398;2024-03-02T03:43:50;33719.88;;;-138.15;80.82
20897;BME280;10608;42.600;23.398;2024-03-02T03:46:17;33631.56;;;-138.15;81.83
20897;BME280;10608;42.600;23.398;2024-03-02T03:48:42;33443.13;;;-138.15;82.97
20897;BME280;10608;42.600;23.398;2024-03-02T03:51:07;33525.56;;;-138.15;81.97
20897;BME280;10608;42.600;23.398;2024-03-02T03:53:33;33482.38;;;-138.15;82.28
20897;BME280;10608;42.600;23.398;2024-03-02T03:55:58;33450.97;;;-138.15;82.00
20897;BME280;10608;42.600;23.398;2024-03-02T03:58:23;33431.34;;;-138.15;82.84
20897;BME280;10608;42.600;23.398;2024-03-02T04:00:49;33445.09;;;-138.15;82.50
20897;BME280;10608;42.600;23.398;2024-03-02T04:03:14;33556.97;;;-138.15;81.43
20897;BME280;10608;42.600;23.398;2024-03-02T04:05:40;33596.22;;;-138.15;81.26
20897;BME280;10608;42.600;23.398;2024-03-02T04:08:05;33556.97;;;-138.15;81.39
20897;BME280;10608;42.600;23.398;2024-03-02T04:10:30;33600.16;;;-138.15;81.11
20897;BME280;10608;42.600;23.398;2024-03-02T04:12:56;33619.78;;;-138.15;80.65
20897;BME280;10608;42.600;23.398;2024-03-02T04:15:22;33820.00;;;-138.15;79.56
20897;BME280;10608;42.600;23.398;2024-03-02T04:17:48;34014.34;;;-138.15;78.58
20897;BME280;10608;42.600;23.398;2024-03-02T04:20:14;34047.72;;;-138.15;78.54
20897;BME280;10608;42.600;23.398;2024-03-02T04:22:39;34047.72;;;-138.15;77.67
20897;BME280;10608;42.600;23.398;2024-03-02T04:25:05;34244.03;;;-138.15;76.75
20897;BME280;10608;42.600;23.398;2024-03-02T04:27:31;34326.47;;;-138.15;77.03
20897;BME280;10608;42.600;23.398;2024-03-02T04:29:59;34330.41;;;-138.15;77.09
20897;BME280;10608;42.600;23.398;2024-03-02T04:32:26;34263.66;;;-138.15;77.13
20897;BME280;10608;42.600;23.398;2024-03-02T04:34:52;34310.78;;;-138.15;77.61
20897;BME280;10608;42.600;23.398;2024-03-02T04:37:17;34338.25;;;-138.15;77.14
20897;BME280;10608;42.600;23.398;2024-03-02T04:39:43;34259.72;;;-138.15;77.26
20897;BME280;10608;42.600;23.398;2024-03-02T04:42:08;34240.09;;;-138.15;77.40
20897;BME280;10608;42.600;23.398;2024-03-02T04:44:34;34216.53;;;-138.15;77.98
20897;BME280;10608;42.600;23.398;2024-03-02T04:46:59;34214.59;;;-138.15;77.63
20897;BME280;10608;42.600;23.398;2024-03-02T04:49:24;34134.09;;;-138.15;78.52
20897;BME280;10608;42.600;23.398;2024-03-02T04:51:50;33990.78;;;-138.15;79.02
20897;BME280;10608;42.600;23.398;2024-03-02T04:54:15;33894.59;;;-138.15;79.50
20897;BME280;10608;42.600;23.398;2024-03-02T04:56:41;33757.19;;;-138.15;80.62
20897;BME280;10608;42.600;23.398;2024-03-02T04:59:10;33682.59;;;-138.15;80.93
20897;BME280;10608;42.600;23.398;2024-03-02T05:01:36;33647.25;;;-138.15;81.20
20897;BME280;10608;42.600;23.398;2024-03-02T05:04:01;33647.25;;;-138.15;81.34
20897;BME280;10608;42.600;23.398;2024-03-02T05:06:27;33666.88;;;-138.15;81.51
20897;BME280;10608;42.600;23.398;2024-03-02T05:08:52;33482.38;;;-138.15;81.95
20897;BME280;10608;42.600;23.398;2024-03-02T05:11:17;33370.50;;;-138.15;83.19
20897;BME280;10608;42.600;23.398;2024-03-02T05:14:01;33313.56;;;-138.15;83.59
20897;BME280;10608;42.600;23.398;2024-03-02T05:16:27;33197.78;;;-138.15;83.66
20897;BME280;10608;42.600;23.398;2024-03-02T05:18:52;32991.69;;;-138.15;85.51
20897;BME280;10608;42.600;23.398;2024-03-02T05:21:18;32932.81;;;-138.15;86.11
20897;BME280;10608;42.600;23.398;2024-03-02T05:23:43;32881.78;;;-138.15;86.08
20897;BME280;10608;42.600;23.398;2024-03-02T05:26:09;32783.66;;;-138.15;86.40
20897;BME280;10608;42.600;23.398;2024-03-02T05:28:38;32838.63;;;-138.15;86.57
20897;BME280;10608;42.600;23.398;2024-03-02T05:31:03;32775.81;;;-138.15;86.99
20897;BME280;10608;42.600;23.398;2024-03-02T05:33:29;32713.03;;;-138.15;87.81
20897;BME280;10608;42.600;23.398;2024-03-02T05:35:56;32689.47;;;-138.15;88.09
20897;BME280;10608;42.600;23.398;2024-03-02T05:38:21;32714.97;;;-138.15;87.55
20897;BME280;10608;42.600;23.398;2024-03-02T05:40:47;32746.38;;;-138.15;86.68
20897;BME280;10608;42.600;23.398;2024-03-02T05:43:13;32846.47;;;-138.15;86.11
20897;BME280;10608;42.600;23.398;2024-03-02T05:45:38;32893.56;;;-138.15;85.51
20897;BME280;10608;42.600;23.398;2024-03-02T05:48:07;32891.59;;;-138.15;85.06
20897;BME280;10608;42.600;23.398;2024-03-02T05:50:33;32885.72;;;-138.15;85.65
20897;BME280;10608;42.600;23.398;2024-03-02T05:52:58;32915.16;;;-138.15;85.51
20897;BME280;10608;42.600;23.398;2024-03-02T05:55:24;33007.41;;;-138.15;84.63
20897;BME280;10608;42.600;23.398;2024-03-02T05:57:50;33029.00;;;-138.15;85.03
20897;BME280;10608;42.600;23.398;2024-03-02T06:00:34;32995.63;;;-138.15;84.64
20897;BME280;10608;42.600;23.398;2024-03-02T06:02:59;32976.00;;;-138.15;85.54
20897;BME280;10608;42.600;23.398;2024-03-02T06:05:24;33054.50;;;-138.15;84.53
20897;BME280;10608;42.600;23.398;2024-03-02T06:07:50;33256.66;;;-138.15;82.27
20897;BME280;10608;42.600;23.398;2024-03-02T06:10:16;33360.69;;;-138.15;82.00
20897;BME280;10608;42.600;23.398;2024-03-02T06:12:41;33449.00;;;-138.15;80.79
20897;BME280;10608;42.600;23.398;2024-03-02T06:15:07;33619.78;;;-138.15;79.94
20897;BME280;10608;42.600;23.398;2024-03-02T06:17:35;33680.63;;;-138.15;79.61
20897;BME280;10608;42.600;23.398;2024-03-02T06:20:00;33596.22;;;-138.15;80.56
20897;BME280;10608;42.600;23.398;2024-03-02T06:22:25;33682.59;;;-138.15;79.35
20897;BME280;10608;42.600;23.398;2024-03-02T06:24:51;33706.16;;;-138.15;79.94
20897;BME280;10608;42.600;23.398;2024-03-02T06:27:16;33757.19;;;-138.15;79.42
20897;BME280;10608;42.600;23.398;2024-03-02T06:29:42;33761.09;;;-138.15;78.99
20897;BME280;10608;42.600;23.398;2024-03-02T06:32:07;33808.22;;;-138.15;78.59
20897;BME280;10608;42.600;23.398;2024-03-02T06:34:33;33763.06;;;-138.15;79.60
20897;BME280;10608;42.600;23.398;2024-03-02T06:36:58;33745.41;;;-138.15;79.92
20897;BME280;10608;42.600;23.398;2024-03-02T06:39:24;33651.19;;;-138.15;79.64
20897;BME280;10608;42.600;23.398;2024-03-02T06:41:51;33604.06;;;-138.15;81.20
20897;BME280;10608;42.600;23.398;2024-03-02T06:44:16;33374.41;;;-138.15;82.08
20897;BME280;10608;42.600;23.398;2024-03-02T06:46:41;33307.69;;;-138.15;82.19
20897;BME280;10608;42.600;23.398;2024-03-02T06:49:07;33191.88;;;-138.15;83.61
20897;BME280;10608;42.600;23.398;2024-03-02T06:51:33;33109.44;;;-138.15;82.95
20897;BME280;10608;42.600;23.398;2024-03-02T06:53:59;33315.53;;;-138.15;82.34
20897;BME280;10608;42.600;23.398;2024-03-02T06:56:24;33511.81;;;-138.15;80.32
20897;BME280;10608;42.600;23.398;2024-03-02T06:58:50;33592.28;;;-138.15;79.60
20897;BME280;10608;42.600;23.398;2024-03-02T07:01:15;33768.97;;;-138.15;78.95
20897;BME280;10608;42.600;23.398;2024-03-02T07:03:41;33739.50;;;-138.15;79.13
20897;BME280;10608;42.600;23.398;2024-03-02T07:06:06;33768.97;;;-138.15;78.56
20897;BME280;10608;42.600;23.398;2024-03-02T07:08:31;33929.94;;;-138.15;77.69
20897;BME280;10608;42.600;23.398;2024-03-02T07:10:57;34016.31;;;-138.15;77.53
20897;BME280;10608;42.600;23.398;2024-03-02T07:13:22;33926.00;;;-138.15;78.35
20897;BME280;10608;42.600;23.398;2024-03-02T07:15:48;33988.81;;;-138.15;77.36
20897;BME280;10608;42.600;23.398;2024-03-02T07:18:33;34035.94;;;-138.15;77.47
20897;BME280;10608;42.600;23.398;2024-03-02T07:21:00;34073.22;;;-138.15;76.89
20897;BME280;10608;42.600;23.398;2024-03-02T07:23:26;34071.28;;;-138.15;77.15
20897;BME280;10608;42.600;23.398;2024-03-02T07:25:52;34185.13;;;-138.15;76.28
20897;BME280;10608;42.600;23.398;2024-03-02T07:28:22;34153.72;;;-138.15;76.85
20897;BME280;10608;42.600;23.398;2024-03-02T07:30:47;34185.13;;;-138.15;76.18
20897;BME280;10608;42.600;23.398;2024-03-02T07:33:14;34208.69;;;-138.15;75.66
20897;BME280;10608;42.600;23.398;2024-03-02T07:35:41;34275.44;;;-138.15;75.58
20897;BME280;10608;42.600;23.398;2024-03-02T07:38:08;34255.81;;;-138.15;76.05
20897;BME280;10608;42.600;23.398;2024-03-02T07:40:33;34283.28;;;-138.15;75.56
20897;BME280;10608;42.600;23.398;2024-03-02T07:42:59;34357.91;;;-138.15;75.09
20897;BME280;10608;42.600;23.398;2024-03-02T07:45:24;34299.00;;;-138.15;75.20
20897;BME280;10608;42.600;23.398;2024-03-02T07:47:50;34359.88;;;-138.15;75.30
20897;BME280;10608;42.600;23.398;2024-03-02T07:50:15;34369.69;;;-138.15;74.82
20897;BME280;10608;42.600;23.398;2024-03-02T07:52:41;34426.63;;;-138.15;74.61
20897;BME280;10608;42.600;23.398;2024-03-02T07:55:07;34518.88;;;-138.15;74.35
20897;BME280;10608;42.600;23.398;2024-03-02T07:57:32;34567.97;;;-138.15;73.71
20897;BME280;10608;42.600;23.398;2024-03-02T07:59:57;34546.38;;;-138.15;73.93
20897;BME280;10608;42.600;23.398;2024-03-02T08:02:24;34571.91;;;-138.15;74.31
20897;BME280;10608;42.600;23.398;2024-03-02T08:04:50;34603.31;;;-138.15;73.92
20897;BME280;10608;42.600;23.398;2024-03-02T08:07:15;34538.53;;;-138.15;74.41
20897;BME280;10608;42.600;23.398;2024-03-02T08:09:41;34634.72;;;-138.15;73.51
20897;BME280;10608;42.600;23.398;2024-03-02T08:12:06;34548.34;;;-138.15;74.59
20897;BME280;10608;42.600;23.398;2024-03-02T08:14:32;34426.63;;;-138.15;75.77
20897;BME280;10608;42.600;23.398;2024-03-02T08:16:57;34477.66;;;-138.15;73.81
20897;BME280;10608;42.600;23.398;2024-03-02T08:19:23;34742.72;;;-138.15;72.60
20897;BME280;10608;42.600;23.398;2024-03-02T08:21:48;34668.09;;;-138.15;73.54
20897;BME280;10608;42.600;23.398;2024-03-02T08:24:13;34509.06;;;-138.15;74.78
20897;BME280;10608;42.600;23.398;2024-03-02T08:26:39;34542.44;;;-138.15;74.71
20897;BME280;10608;42.600;23.398;2024-03-02T08:29:04;34446.25;;;-138.15;74.78
20897;BME280;10608;42.600;23.398;2024-03-02T08:31:30;34461.94;;;-138.15;74.87
20897;BME280;10608;42.600;23.398;2024-03-02T08:33:56;34448.22;;;-138.15;74.78
20897;BME280;10608;42.600;23.398;2024-03-02T08:36:22;34485.50;;;-138.15;74.87
20897;BME280;10608;42.600;23.398;2024-03-02T08:38:49;34440.34;;;-138.15;73.56
20897;BME280;10608;42.600;23.398;2024-03-02T08:41:15;34672.03;;;-138.15;73.41
20897;BME280;10608;42.600;23.398;2024-03-02T08:43:41;34674.00;;;-138.15;73.40
20897;BME280;10608;42.600;23.398;2024-03-02T08:46:07;34668.09;;;-138.15;73.94
20897;BME280;10608;42.600;23.398;2024-03-02T08:48:33;34499.25;;;-138.15;74.77
20897;BME280;10608;42.600;23.398;2024-03-02T08:50:58;34489.44;;;-138.15;75.02
20897;BME280;10608;42.600;23.398;2024-03-02T08:53:24;34558.16;;;-138.15;74.28
20897;BME280;10608;42.600;23.398;2024-03-02T08:55:49;34581.72;;;-138.15;72.92
20897;BME280;10608;42.600;23.398;2024-03-02T08:58:15;34730.94;;;-138.15;72.94
20897;BME280;10608;42.600;23.398;2024-03-02T09:00:40;34758.44;;;-138.15;72.58
20897;BME280;10608;42.600;23.398;2024-03-02T09:03:07;34836.97;;;-138.15;71.71
20897;BME280;10608;42.600;23.398;2024-03-02T09:05:32;35023.50;;;-138.15;70.96
20897;BME280;10608;42.600;23.398;2024-03-02T09:07:58;35023.50;;;-138.15;71.09
20897;BME280;10608;42.600;23.398;2024-03-02T09:10:23;34990.13;;;-138.15;71.89
20897;BME280;10608;42.600;23.398;2024-03-02T09:12:48;35098.13;;;-138.15;70.29
20897;BME280;10608;42.600;23.398;2024-03-02T09:15:15;34990.13;;;-138.15;71.70
20897;BME280;10608;42.600;23.398;2024-03-02T09:17:41;35025.47;;;-138.15;71.59
20897;BME280;10608;42.600;23.398;2024-03-02T09:20:06;35047.06;;;-138.15;69.73
20897;BME280;10608;42.600;23.398;2024-03-02T09:22:32;35320.03;;;-138.15;68.93
20897;BME280;10608;42.600;23.398;2024-03-02T09:24:57;35420.16;;;-138.15;67.98
20897;BME280;10608;42.600;23.398;2024-03-02T09:27:23;35791.34;;;-138.15;66.25
20897;BME280;10608;42.600;23.398;2024-03-02T09:29:49;35983.81;;;-138.15;66.11
20897;BME280;10608;42.600;23.398;2024-03-02T09:32:14;35952.41;;;-138.15;65.99
20897;BME280;10608;42.600;23.398;2024-03-02T09:34:41;36227.38;;;-138.15;64.54
20897;BME280;10608;42.600;23.398;2024-03-02T09:37:06;36231.31;;;-138.15;64.84
20897;BME280;10608;42.600;23.398;2024-03-02T09:39:32;36192.03;;;-138.15;65.28
20897;BME280;10608;42.600;23.398;2024-03-02T09:41:58;36254.88;;;-138.15;64.69
20897;BME280;10608;42.600;23.398;2024-03-02T09:44:24;36254.88;;;-138.15;65.08
20897;BME280;10608;42.600;23.398;2024-03-02T09:46:51;36125.25;;;-138.15;66.49
20897;BME280;10608;42.600;23.398;2024-03-02T09:49:16;36192.03;;;-138.15;65.82
20897;BME280;10608;42.600;23.398;2024-03-02T09:51:47;35956.31;;;-138.15;67.72
20897;BME280;10608;42.600;23.398;2024-03-02T09:54:13;35396.59;;;-138.15;71.38
20897;BME280;10608;42.600;23.398;2024-03-02T09:56:39;34750.56;;;-138.15;74.51
20897;BME280;10608;42.600;23.398;2024-03-02T09:59:04;34422.69;;;-138.15;75.74
20897;BME280;10608;42.600;23.398;2024-03-02T10:01:30;34281.34;;;-138.15;76.56
20897;BME280;10608;42.600;23.398;2024-03-02T10:03:59;33859.25;;;-138.15;78.61
20897;BME280;10608;42.600;23.398;2024-03-02T10:06:26;33623.69;;;-138.15;80.14
20897;BME280;10608;42.600;23.398;2024-03-02T10:08:53;33449.00;;;-138.15;79.82
20897;BME280;10608;42.600;23.398;2024-03-02T10:11:31;33837.66;;;-138.15;77.60
20897;BME280;10608;42.600;23.398;2024-03-02T10:16:34;34039.84;;;-138.15;76.63
20897;BME280;10608;42.600;23.398;2024-03-02T10:21:40;33753.25;;;-138.15;79.07
20897;BME280;10608;42.600;23.398;2024-03-02T10:24:09;33678.66;;;-138.15;79.12
20897;BME280;10608;42.600;23.398;2024-03-02T10:26:34;33759.16;;;-138.15;78.43
20897;BME280;10608;42.600;23.398;2024-03-02T10:28:59;33906.38;;;-138.15;77.72
20897;BME280;10608;42.600;23.398;2024-03-02T10:31:26;33706.16;;;-138.15;78.62
20897;BME280;10608;42.600;23.398;2024-03-02T10:33:54;33635.47;;;-138.15;79.50
20897;BME280;10608;42.600;23.398;2024-03-02T10:36:20;33507.91;;;-138.15;80.49
20897;BME280;10608;42.600;23.398;2024-03-02T10:38:46;33431.34;;;-138.15;80.30
20897;BME280;10608;42.600;23.398;2024-03-02T10:41:34;33474.53;;;-138.15;79.86
20897;BME280;10608;42.600;23.398;2024-03-02T10:44:02;33631.56;;;-138.15;78.65
20897;BME280;10608;42.600;23.398;2024-03-02T10:46:29;33749.34;;;-138.15;78.90
20897;BME280;10608;42.600;23.398;2024-03-02T10:48:56;33576.59;;;-138.15;80.01
20897;BME280;10608;42.600;23.398;2024-03-02T10:51:25;33572.66;;;-138.15;79.68
20897;BME280;10608;42.600;23.398;2024-03-02T10:53:52;33490.22;;;-138.15;80.60
20897;BME280;10608;42.600;23.398;2024-03-02T10:56:22;33482.38;;;-138.15;80.24
20897;BME280;10608;42.600;23.398;2024-03-02T10:59:03;33394.06;;;-138.15;80.52
20897;BME280;10608;42.600;23.398;2024-03-02T11:01:30;33378.34;;;-138.15;81.01
20897;BME280;10608;42.600;23.398;2024-03-02T11:03:57;33590.34;;;-138.15;78.91
20897;BME280;10608;42.600;23.398;2024-03-02T11:06:23;33590.34;;;-138.15;79.47
20897;BME280;10608;42.600;23.398;2024-03-02T11:08:52;33753.25;;;-138.15;78.10
20897;BME280;10608;42.600;23.398;2024-03-02T11:11:27;33356.75;;;-138.15;81.83
20897;BME280;10608;42.600;23.398;2024-03-02T11:13:57;33056.47;;;-138.15;83.20
20897;BME280;10608;42.600;23.398;2024-03-02T11:16:36;33089.81;;;-138.15;82.39
20897;BME280;10608;42.600;23.398;2024-03-02T11:19:06;33068.25;;;-138.15;83.01
20897;BME280;10608;42.600;23.398;2024-03-02T11:21:36;32881.78;;;-138.15;84.17
20897;BME280;10608;42.600;23.398;2024-03-02T11:26:46;33001.50;;;-138.15;82.92
20897;BME280;10608;42.600;23.398;2024-03-02T11:32:06;33113.38;;;-138.15;82.04
20897;BME280;10608;42.600;23.398;2024-03-02T11:34:35;33097.69;;;-138.15;82.55
20897;BME280;10608;42.600;23.398;2024-03-02T11:37:02;33213.47;;;-138.15;81.86
20897;BME280;10608;42.600;23.398;2024-03-02T11:39:29;33081.97;;;-138.15;82.65
20897;BME280;10608;42.600;23.398;2024-03-02T11:41:56;32858.25;;;-138.15;84.85
20897;BME280;10608;42.600;23.398;2024-03-02T11:44:22;32803.28;;;-138.15;85.06
20897;BME280;10608;42.600;23.398;2024-03-02T11:47:08;32744.41;;;-138.15;85.08
20897;BME280;10608;42.600;23.398;2024-03-02T11:49:46;32785.63;;;-138.15;84.81
20897;BME280;10608;42.600;23.398;2024-03-02T11:52:15;32795.44;;;-138.15;85.69
20897;BME280;10608;42.600;23.398;2024-03-02T11:54:45;32597.25;;;-138.15;86.20
20897;BME280;10608;42.600;23.398;2024-03-02T11:57:18;32605.09;;;-138.15;86.57
20897;BME280;10608;42.600;23.398;2024-03-02T11:59:45;32587.44;;;-138.15;87.09
20897;BME280;10608;42.600;23.398;2024-03-02T12:02:20;32583.50;;;-138.15;86.73
20897;BME280;10608;42.600;23.398;2024-03-02T12:04:47;32648.25;;;-138.15;86.28
20897;BME280;10608;42.600;23.398;2024-03-02T12:07:18;32612.94;;;-138.15;86.19
20897;BME280;10608;42.600;23.398;2024-03-02T12:09:45;32618.81;;;-138.15;86.46
20897;BME280;10608;42.600;23.398;2024-03-02T12:12:11;32524.63;;;-138.15;86.88
20897;BME280;10608;42.600;23.398;2024-03-02T12:14:37;32516.78;;;-138.15;87.29
20897;BME280;10608;42.600;23.398;2024-03-02T12:17:04;32587.44;;;-138.15;85.89
20897;BME280;10608;42.600;23.398;2024-03-02T12:19:32;32658.06;;;-138.15;85.33
20897;BME280;10608;42.600;23.398;2024-03-02T12:21:58;32571.72;;;-138.15;85.08
20897;BME280;10608;42.600;23.398;2024-03-02T12:24:24;32785.63;;;-138.15;84.17
20897;BME280;10608;42.600;23.398;2024-03-02T12:26:51;32871.97;;;-138.15;83.54
20897;BME280;10608;42.600;23.398;2024-03-02T12:29:18;33029.00;;;-138.15;82.50
20897;BME280;10608;42.600;23.398;2024-03-02T12:31:44;33050.56;;;-138.15;82.45
20897;BME280;10608;42.600;23.398;2024-03-02T12:34:13;33038.81;;;-138.15;82.73
20897;BME280;10608;42.600;23.398;2024-03-02T12:36:39;33027.03;;;-138.15;82.47
20897;BME280;10608;42.600;23.398;2024-03-02T12:39:07;33019.16;;;-138.15;82.56
20897;BME280;10608;42.600;23.398;2024-03-02T12:41:38;33164.41;;;-138.15;81.45